sensor_id;sensor_type;location;lat;lon;timestamp;pressure;altitude;pressure_sealevel;temperature;humidity
50550;BME280;36505;52.512;13.460;2023-03-12T00:02:08;100494.34;;;0.13;74.79
50550;BME280;36505;52.512;13.460;2023-03-12T00:04:33;100497.50;;;0.17;74.70
50550;BME280;36505;52.512;13.460;2023-03-12T00:07:01;100488.31;;;0.11;74.71
50550;BME280;36505;52.512;13.460;2023-03-12T00:09:27;100494.53;;;0.12;74.54
50550;BME280;36505;52.512;13.460;2023-03-12T00:11:53;100493.31;;;0.14;74.45
50550;BME280;36505;52.512;13.460;2023-03-12T00:14:19;100487.75;;;0.16;74.56
50550;BME280;36505;52.512;13.460;2023-03-12T00:16:44;100493.97;;;0.16;74.81
50550;BME280;36505;52.512;13.460;2023-03-12T00:19:13;100481.59;;;0.07;74.47
50550;BME280;36505;52.512;13.460;2023-03-12T00:21:39;100478.72;;;0.09;74.23
50550;BME280;36505;52.512;13.460;2023-03-12T00:24:05;100479.94;;;0.06;74.59
50550;BME280;36505;52.512;13.460;2023-03-12T00:26:31;100486.44;;;0.12;74.24
50550;BME280;36505;52.512;13.460;2023-03-12T00:28:57;100482.81;;;0.05;74.20
50550;BME280;36505;52.512;13.460;2023-03-12T00:31:28;100497.13;;;0.05;74.24
50550;BME280;36505;52.512;13.460;2023-03-12T00:33:55;100481.97;;;0.04;74.55
50550;BME280;36505;52.512;13.460;2023-03-12T00:36:23;100488.88;;;0.07;74.17
50550;BME280;36505;52.512;13.460;2023-03-12T00:38:51;100498.59;;;0.08;74.55
50550;BME280;36505;52.512;13.460;2023-03-12T00:41:17;100496.09;;;0.06;74.39
50550;BME280;36505;52.512;13.460;2023-03-12T00:43:45;100483.91;;;-0.05;74.23
50550;BME280;36505;52.512;13.460;2023-03-12T00:46:11;100489.09;;;-0.03;74.50
50550;BME280;36505;52.512;13.460;2023-03-12T00:48:36;100507.88;;;0.05;74.27
50550;BME280;36505;52.512;13.460;2023-03-12T00:51:01;100510.41;;;0.07;73.93
50550;BME280;36505;52.512;13.460;2023-03-12T00:53:27;100501.00;;;0.03;74.26
50550;BME280;36505;52.512;13.460;2023-03-12T00:55:52;100511.75;;;0.03;74.39
50550;BME280;36505;52.512;13.460;2023-03-12T00:58:17;100512.03;;;0.08;74.17
50550;BME280;36505;52.512;13.460;2023-03-12T01:00:43;100506.50;;;0.09;74.48
50550;BME280;36505;52.512;13.460;2023-03-12T01:03:08;100497.41;;;0.10;74.37
50550;BME280;36505;52.512;13.460;2023-03-12T01:05:33;100490.63;;;0.14;74.02
50550;BME280;36505;52.512;13.460;2023-03-12T01:08:03;100526.25;;;0.39;73.24
50550;BME280;36505;52.512;13.460;2023-03-12T01:10:29;100518.59;;;0.43;73.38
50550;BME280;36505;52.512;13.460;2023-03-12T01:12:54;100503.84;;;0.38;73.37
50550;BME280;36505;52.512;13.460;2023-03-12T01:15:20;100508.78;;;0.50;73.14
50550;BME280;36505;52.512;13.460;2023-03-12T01:17:45;100507.19;;;0.55;72.88
50550;BME280;36505;52.512;13.460;2023-03-12T01:20:11;100518.16;;;0.68;72.09
50550;BME280;36505;52.512;13.460;2023-03-12T01:22:36;100526.16;;;0.76;71.81
50550;BME280;36505;52.512;13.460;2023-03-12T01:25:02;100523.47;;;0.76;72.27
50550;BME280;36505;52.512;13.460;2023-03-12T01:27:28;100523.53;;;0.83;72.03
50550;BME280;36505;52.512;13.460;2023-03-12T01:29:53;100527.75;;;0.86;71.78
50550;BME280;36505;52.512;13.460;2023-03-12T01:32:19;100514.84;;;0.81;71.74
50550;BME280;36505;52.512;13.460;2023-03-12T01:34:45;100519.56;;;0.79;71.84
50550;BME280;36505;52.512;13.460;2023-03-12T01:37:10;100530.88;;;0.89;71.29
50550;BME280;36505;52.512;13.460;2023-03-12T01:39:36;100530.44;;;0.86;71.73
50550;BME280;36505;52.512;13.460;2023-03-12T01:42:02;100534.97;;;0.85;71.63
50550;BME280;36505;52.512;13.460;2023-03-12T01:44:28;100534.97;;;0.85;71.81
50550;BME280;36505;52.512;13.460;2023-03-12T01:46:54;100533.78;;;0.88;71.97
50550;BME280;36505;52.512;13.460;2023-03-12T01:52:03;100543.16;;;0.92;72.12
50550;BME280;36505;52.512;13.460;2023-03-12T01:54:49;100549.47;;;0.99;71.73
50550;BME280;36505;52.512;13.460;2023-03-12T01:57:21;100546.78;;;0.99;71.63
50550;BME280;36505;52.512;13.460;2023-03-12T01:59:51;100525.69;;;0.88;71.53
50550;BME280;36505;52.512;13.460;2023-03-12T02:02:19;100548.91;;;1.03;71.54
50550;BME280;36505;52.512;13.460;2023-03-12T02:04:53;100547.88;;;1.04;71.86
50550;BME280;36505;52.512;13.460;2023-03-12T02:07:24;100555.22;;;1.10;71.91
50550;BME280;36505;52.512;13.460;2023-03-12T02:09:49;100547.72;;;1.06;71.92
50550;BME280;36505;52.512;13.460;2023-03-12T02:12:16;100558.13;;;1.09;71.83
50550;BME280;36505;52.512;13.460;2023-03-12T02:14:41;100562.56;;;1.16;71.84
50550;BME280;36505;52.512;13.460;2023-03-12T02:17:09;100555.88;;;1.12;71.82
50550;BME280;36505;52.512;13.460;2023-03-12T02:22:34;100569.34;;;1.27;71.89
50550;BME280;36505;52.512;13.460;2023-03-12T02:27:37;100558.66;;;1.19;71.72
50550;BME280;36505;52.512;13.460;2023-03-12T02:30:04;100575.78;;;1.26;71.78
50550;BME280;36505;52.512;13.460;2023-03-12T02:32:34;100571.69;;;1.15;71.49
50550;BME280;36505;52.512;13.460;2023-03-12T02:35:03;100581.75;;;1.22;71.72
50550;BME280;36505;52.512;13.460;2023-03-12T02:37:30;100573.56;;;1.15;71.78
50550;BME280;36505;52.512;13.460;2023-03-12T02:40:03;100573.56;;;1.15;71.75
50550;BME280;36505;52.512;13.460;2023-03-12T02:42:30;100578.03;;;1.08;72.13
50550;BME280;36505;52.512;13.460;2023-03-12T02:44:56;100561.19;;;0.91;71.75
50550;BME280;36505;52.512;13.460;2023-03-12T02:47:22;100592.78;;;0.97;72.11
50550;BME280;36505;52.512;13.460;2023-03-12T02:49:48;100570.50;;;0.74;72.22
50550;BME280;36505;52.512;13.460;2023-03-12T02:52:13;100603.56;;;0.83;72.40
50550;BME280;36505;52.512;13.460;2023-03-12T02:54:38;100603.13;;;0.79;72.83
50550;BME280;36505;52.512;13.460;2023-03-12T02:57:04;100577.72;;;0.59;73.01
50550;BME280;36505;52.512;13.460;2023-03-12T02:59:29;100604.59;;;0.67;73.27
50550;BME280;36505;52.512;13.460;2023-03-12T03:01:59;100610.72;;;0.61;73.48
50550;BME280;36505;52.512;13.460;2023-03-12T03:04:25;100608.28;;;0.51;73.52
50550;BME280;36505;52.512;13.460;2023-03-12T03:06:52;100607.81;;;0.48;73.84
50550;BME280;36505;52.512;13.460;2023-03-12T03:09:17;100600.31;;;0.35;74.17
50550;BME280;36505;52.512;13.460;2023-03-12T03:11:46;100602.19;;;0.34;73.97
50550;BME280;36505;52.512;13.460;2023-03-12T03:14:12;100610.63;;;0.31;74.20
50550;BME280;36505;52.512;13.460;2023-03-12T03:16:37;100612.84;;;0.28;74.56
50550;BME280;36505;52.512;13.460;2023-03-12T03:19:04;100598.81;;;0.18;75.13
50550;BME280;36505;52.512;13.460;2023-03-12T03:21:29;100610.25;;;0.20;75.25
50550;BME280;36505;52.512;13.460;2023-03-12T03:23:55;100616.16;;;0.15;74.98
50550;BME280;36505;52.512;13.460;2023-03-12T03:26:21;100613.63;;;0.14;75.17
50550;BME280;36505;52.512;13.460;2023-03-12T03:28:47;100620.41;;;0.10;75.51
50550;BME280;36505;52.512;13.460;2023-03-12T03:31:12;100608.56;;;-0.04;75.93
50550;BME280;36505;52.512;13.460;2023-03-12T03:33:38;100611.25;;;-0.04;75.84
50550;BME280;36505;52.512;13.460;2023-03-12T03:36:05;100624.00;;;0.02;76.18
50550;BME280;36505;52.512;13.460;2023-03-12T03:38:32;100621.84;;;-0.03;76.28
50550;BME280;36505;52.512;13.460;2023-03-12T03:40:59;100616.03;;;-0.14;76.28
50550;BME280;36505;52.512;13.460;2023-03-12T03:43:25;100634.16;;;-0.08;76.33
50550;BME280;36505;52.512;13.460;2023-03-12T03:46:02;100636.19;;;-0.10;76.70
50550;BME280;36505;52.512;13.460;2023-03-12T03:48:28;100629.13;;;-0.11;76.46
50550;BME280;36505;52.512;13.460;2023-03-12T03:50:58;100631.69;;;-0.18;76.67
50550;BME280;36505;52.512;13.460;2023-03-12T03:53:24;100630.84;;;-0.18;76.84
50550;BME280;36505;52.512;13.460;2023-03-12T03:55:49;100639.94;;;-0.19;77.05
50550;BME280;36505;52.512;13.460;2023-03-12T03:58:15;100629.25;;;-0.27;76.86
50550;BME280;36505;52.512;13.460;2023-03-12T04:00:46;100646.88;;;-0.25;77.42
50550;BME280;36505;52.512;13.460;2023-03-12T04:03:11;100634.66;;;-0.35;77.37
50550;BME280;36505;52.512;13.460;2023-03-12T04:05:38;100652.78;;;-0.29;77.42
50550;BME280;36505;52.512;13.460;2023-03-12T04:08:05;100658.50;;;-0.32;77.75
50550;BME280;36505;52.512;13.460;2023-03-12T04:10:31;100652.53;;;-0.43;77.71
50550;BME280;36505;52.512;13.460;2023-03-12T04:12:56;100660.22;;;-0.40;77.99
50550;BME280;36505;52.512;13.460;2023-03-12T04:15:22;100663.94;;;-0.41;77.92
50550;BME280;36505;52.512;13.460;2023-03-12T04:17:48;100664.13;;;-0.42;78.24
50550;BME280;36505;52.512;13.460;2023-03-12T04:20:14;100665.81;;;-0.41;78.40
50550;BME280;36505;52.512;13.460;2023-03-12T04:22:39;100659.25;;;-0.47;78.37
50550;BME280;36505;52.512;13.460;2023-03-12T04:25:05;100660.25;;;-0.48;78.50
50550;BME280;36505;52.512;13.460;2023-03-12T04:27:32;100674.03;;;-0.43;78.73
50550;BME280;36505;52.512;13.460;2023-03-12T04:29:57;100667.31;;;-0.47;78.95
50550;BME280;36505;52.512;13.460;2023-03-12T04:32:23;100669.00;;;-0.46;78.88
50550;BME280;36505;52.512;13.460;2023-03-12T04:34:48;100671.84;;;-0.47;78.97
50550;BME280;36505;52.512;13.460;2023-03-12T04:37:13;100676.06;;;-0.45;79.17
50550;BME280;36505;52.512;13.460;2023-03-12T04:39:40;100677.06;;;-0.46;79.18
50550;BME280;36505;52.512;13.460;2023-03-12T04:42:06;100675.59;;;-0.48;79.19
50550;BME280;36505;52.512;13.460;2023-03-12T04:44:32;100659.47;;;-0.56;79.49
50550;BME280;36505;52.512;13.460;2023-03-12T04:46:58;100681.13;;;-0.50;79.94
50550;BME280;36505;52.512;13.460;2023-03-12T04:49:23;100678.78;;;-0.53;79.96
50550;BME280;36505;52.512;13.460;2023-03-12T04:51:49;100680.81;;;-0.55;80.26
50550;BME280;36505;52.512;13.460;2023-03-12T04:54:14;100675.09;;;-0.60;80.23
50550;BME280;36505;52.512;13.460;2023-03-12T04:56:40;100681.16;;;-0.58;80.42
50550;BME280;36505;52.512;13.460;2023-03-12T04:59:05;100682.16;;;-0.59;80.64
50550;BME280;36505;52.512;13.460;2023-03-12T05:01:33;100687.91;;;-0.62;80.84
50550;BME280;36505;52.512;13.460;2023-03-12T05:04:00;100686.03;;;-0.61;81.23
50550;BME280;36505;52.512;13.460;2023-03-12T05:06:27;100683.56;;;-0.71;81.17
50550;BME280;36505;52.512;13.460;2023-03-12T05:08:52;100692.63;;;-0.64;81.83
50550;BME280;36505;52.512;13.460;2023-03-12T05:11:18;100699.84;;;-0.64;81.65
50550;BME280;36505;52.512;13.460;2023-03-12T05:13:44;100702.16;;;-0.61;81.97
50550;BME280;36505;52.512;13.460;2023-03-12T05:16:10;100702.16;;;-0.61;81.80
50550;BME280;36505;52.512;13.460;2023-03-12T05:18:36;100695.63;;;-0.67;82.09
50550;BME280;36505;52.512;13.460;2023-03-12T05:21:03;100711.06;;;-0.61;82.02
50550;BME280;36505;52.512;13.460;2023-03-12T05:23:29;100695.97;;;-0.62;81.95
50550;BME280;36505;52.512;13.460;2023-03-12T05:25:55;100696.16;;;-0.71;81.87
50550;BME280;36505;52.512;13.460;2023-03-12T05:28:21;100706.91;;;-0.63;82.41
50550;BME280;36505;52.512;13.460;2023-03-12T05:30:58;100701.69;;;-0.65;81.92
50550;BME280;36505;52.512;13.460;2023-03-12T05:33:25;100701.69;;;-0.65;82.15
50550;BME280;36505;52.512;13.460;2023-03-12T05:35:51;100699.69;;;-0.63;82.18
50550;BME280;36505;52.512;13.460;2023-03-12T05:38:17;100695.63;;;-0.59;82.09
50550;BME280;36505;52.512;13.460;2023-03-12T05:40:49;100694.44;;;-0.56;82.02
50550;BME280;36505;52.512;13.460;2023-03-12T05:43:14;100698.31;;;-0.59;82.00
50550;BME280;36505;52.512;13.460;2023-03-12T05:45:40;100696.59;;;-0.52;82.17
50550;BME280;36505;52.512;13.460;2023-03-12T05:48:05;100698.97;;;-0.49;82.21
50550;BME280;36505;52.512;13.460;2023-03-12T05:50:30;100710.03;;;-0.44;81.80
50550;BME280;36505;52.512;13.460;2023-03-12T05:52:56;100699.53;;;-0.30;81.61
50550;BME280;36505;52.512;13.460;2023-03-12T05:55:21;100711.47;;;0.06;80.75
50550;BME280;36505;52.512;13.460;2023-03-12T05:57:46;100694.47;;;0.28;80.17
50550;BME280;36505;52.512;13.460;2023-03-12T06:00:12;100694.66;;;0.50;79.17
50550;BME280;36505;52.512;13.460;2023-03-12T06:02:38;100704.03;;;0.76;78.44
50550;BME280;36505;52.512;13.460;2023-03-12T06:05:04;100717.41;;;1.07;77.24
50550;BME280;36505;52.512;13.460;2023-03-12T06:07:30;100706.94;;;1.42;76.50
50550;BME280;36505;52.512;13.460;2023-03-12T06:09:55;100707.81;;;1.78;75.40
50550;BME280;36505;52.512;13.460;2023-03-12T06:12:20;100700.94;;;2.12;73.10
50550;BME280;36505;52.512;13.460;2023-03-12T06:14:46;100703.06;;;2.52;72.06
50550;BME280;36505;52.512;13.460;2023-03-12T06:17:11;100708.31;;;2.82;70.79
50550;BME280;36505;52.512;13.460;2023-03-12T06:19:36;100705.44;;;3.11;69.83
50550;BME280;36505;52.512;13.460;2023-03-12T06:22:02;100698.44;;;3.57;67.66
50550;BME280;36505;52.512;13.460;2023-03-12T06:24:28;100706.31;;;3.87;66.19
50550;BME280;36505;52.512;13.460;2023-03-12T06:26:54;100718.13;;;4.20;64.17
50550;BME280;36505;52.512;13.460;2023-03-12T06:29:19;100704.84;;;4.52;63.49
50550;BME280;36505;52.512;13.460;2023-03-12T06:31:44;100708.44;;;5.25;61.03
50550;BME280;36505;52.512;13.460;2023-03-12T06:34:11;100707.06;;;5.73;59.63
50550;BME280;36505;52.512;13.460;2023-03-12T06:36:36;100712.75;;;6.23;57.62
50550;BME280;36505;52.512;13.460;2023-03-12T06:39:02;100707.13;;;6.56;56.52
50550;BME280;36505;52.512;13.460;2023-03-12T06:41:30;100715.72;;;6.84;55.11
50550;BME280;36505;52.512;13.460;2023-03-12T06:43:55;100717.00;;;6.82;54.82
50550;BME280;36505;52.512;13.460;2023-03-12T06:46:23;100733.22;;;7.44;54.18
50550;BME280;36505;52.512;13.460;2023-03-12T06:48:49;100724.13;;;8.12;52.62
50550;BME280;36505;52.512;13.460;2023-03-12T06:51:16;100717.88;;;8.71;51.24
50550;BME280;36505;52.512;13.460;2023-03-12T06:53:42;100721.50;;;9.06;48.70
50550;BME280;36505;52.512;13.460;2023-03-12T06:56:08;100718.78;;;9.30;47.96
50550;BME280;36505;52.512;13.460;2023-03-12T06:58:34;100716.88;;;9.77;47.61
50550;BME280;36505;52.512;13.460;2023-03-12T07:00:59;100723.72;;;10.14;47.07
50550;BME280;36505;52.512;13.460;2023-03-12T07:03:25;100724.50;;;10.66;45.59
50550;BME280;36505;52.512;13.460;2023-03-12T07:05:51;100716.00;;;10.96;44.55
50550;BME280;36505;52.512;13.460;2023-03-12T07:08:17;100713.53;;;11.45;43.85
50550;BME280;36505;52.512;13.460;2023-03-12T07:10:43;100723.38;;;12.01;42.06
50550;BME280;36505;52.512;13.460;2023-03-12T07:13:09;100714.91;;;12.73;40.22
50550;BME280;36505;52.512;13.460;2023-03-12T07:15:35;100713.75;;;13.23;40.13
50550;BME280;36505;52.512;13.460;2023-03-12T07:18:05;100707.94;;;13.56;37.78
50550;BME280;36505;52.512;13.460;2023-03-12T07:20:31;100710.63;;;13.46;38.99
50550;BME280;36505;52.512;13.460;2023-03-12T07:22:58;100714.03;;;13.26;39.40
50550;BME280;36505;52.512;13.460;2023-03-12T07:25:24;100719.16;;;12.86;39.89
50550;BME280;36505;52.512;13.460;2023-03-12T07:27:49;100720.56;;;12.61;40.78
50550;BME280;36505;52.512;13.460;2023-03-12T07:30:14;100717.78;;;12.35;40.08
50550;BME280;36505;52.512;13.460;2023-03-12T07:32:40;100722.06;;;12.04;40.86
50550;BME280;36505;52.512;13.460;2023-03-12T07:35:05;100718.09;;;11.95;40.60
50550;BME280;36505;52.512;13.460;2023-03-12T07:37:31;100737.03;;;11.96;40.77
50550;BME280;36505;52.512;13.460;2023-03-12T07:39:56;100734.91;;;11.81;41.13
50550;BME280;36505;52.512;13.460;2023-03-12T07:42:22;100737.19;;;12.06;40.87
50550;BME280;36505;52.512;13.460;2023-03-12T07:44:47;100735.66;;;12.86;38.80
50550;BME280;36505;52.512;13.460;2023-03-12T07:47:13;100722.72;;;13.45;38.21
50550;BME280;36505;52.512;13.460;2023-03-12T07:49:38;100729.94;;;13.98;36.84
50550;BME280;36505;52.512;13.460;2023-03-12T07:52:06;100735.44;;;14.50;36.79
50550;BME280;36505;52.512;13.460;2023-03-12T07:54:34;100733.00;;;14.64;35.95
50550;BME280;36505;52.512;13.460;2023-03-12T07:57:00;100736.66;;;15.30;34.27
50550;BME280;36505;52.512;13.460;2023-03-12T07:59:25;100734.97;;;15.95;34.14
50550;BME280;36505;52.512;13.460;2023-03-12T08:01:52;100735.47;;;16.77;32.58
50550;BME280;36505;52.512;13.460;2023-03-12T08:04:17;100738.47;;;16.80;31.16
50550;BME280;36505;52.512;13.460;2023-03-12T08:06:43;100739.47;;;17.33;30.88
50550;BME280;36505;52.512;13.460;2023-03-12T08:09:08;100738.78;;;17.52;31.48
50550;BME280;36505;52.512;13.460;2023-03-12T08:11:34;100740.38;;;17.63;30.38
50550;BME280;36505;52.512;13.460;2023-03-12T08:14:01;100740.00;;;17.02;31.93
50550;BME280;36505;52.512;13.460;2023-03-12T08:16:26;100746.25;;;16.73;32.56
50550;BME280;36505;52.512;13.460;2023-03-12T08:18:52;100747.78;;;16.40;32.04
50550;BME280;36505;52.512;13.460;2023-03-12T08:21:17;100749.09;;;16.53;32.25
50550;BME280;36505;52.512;13.460;2023-03-12T08:23:43;100742.06;;;17.25;30.69
50550;BME280;36505;52.512;13.460;2023-03-12T08:26:08;100741.47;;;17.91;29.77
50550;BME280;36505;52.512;13.460;2023-03-12T08:28:33;100731.97;;;18.44;30.39
50550;BME280;36505;52.512;13.460;2023-03-12T08:30:59;100740.34;;;19.19;28.37
50550;BME280;36505;52.512;13.460;2023-03-12T08:33:25;100740.88;;;19.21;28.76
50550;BME280;36505;52.512;13.460;2023-03-12T08:35:51;100733.66;;;19.58;26.42
50550;BME280;36505;52.512;13.460;2023-03-12T08:38:16;100741.03;;;19.11;28.61
50550;BME280;36505;52.512;13.460;2023-03-12T08:40:42;100744.72;;;19.07;27.79
50550;BME280;36505;52.512;13.460;2023-03-12T08:43:07;100746.66;;;19.76;27.60
50550;BME280;36505;52.512;13.460;2023-03-12T08:45:33;100737.63;;;19.84;26.67
50550;BME280;36505;52.512;13.460;2023-03-12T08:48:04;100745.44;;;18.32;28.33
50550;BME280;36505;52.512;13.460;2023-03-12T08:50:29;100741.53;;;16.79;30.53
50550;BME280;36505;52.512;13.460;2023-03-12T08:52:57;100740.81;;;16.53;32.11
50550;BME280;36505;52.512;13.460;2023-03-12T08:55:22;100739.84;;;16.24;31.14
50550;BME280;36505;52.512;13.460;2023-03-12T08:57:48;100744.66;;;15.77;31.77
50550;BME280;36505;52.512;13.460;2023-03-12T09:00:13;100732.50;;;14.92;33.55
50550;BME280;36505;52.512;13.460;2023-03-12T09:02:43;100737.69;;;14.69;33.92
50550;BME280;36505;52.512;13.460;2023-03-12T09:05:09;100739.59;;;14.06;34.50
50550;BME280;36505;52.512;13.460;2023-03-12T09:07:35;100734.56;;;13.88;34.52
50550;BME280;36505;52.512;13.460;2023-03-12T09:10:01;100741.06;;;14.18;34.12
50550;BME280;36505;52.512;13.460;2023-03-12T09:12:26;100738.03;;;15.18;33.30
50550;BME280;36505;52.512;13.460;2023-03-12T09:14:52;100740.19;;;16.02;31.80
50550;BME280;36505;52.512;13.460;2023-03-12T09:17:17;100742.41;;;16.74;31.09
50550;BME280;36505;52.512;13.460;2023-03-12T09:19:43;100734.59;;;17.25;30.58
50550;BME280;36505;52.512;13.460;2023-03-12T09:22:09;100724.66;;;17.53;29.75
50550;BME280;36505;52.512;13.460;2023-03-12T09:24:34;100719.56;;;17.94;28.95
50550;BME280;36505;52.512;13.460;2023-03-12T09:27:00;100722.72;;;17.83;29.08
50550;BME280;36505;52.512;13.460;2023-03-12T09:29:26;100725.75;;;17.23;29.33
50550;BME280;36505;52.512;13.460;2023-03-12T09:31:51;100722.50;;;17.79;28.71
50550;BME280;36505;52.512;13.460;2023-03-12T09:34:17;100722.38;;;18.37;28.14
50550;BME280;36505;52.512;13.460;2023-03-12T09:36:42;100716.78;;;18.18;27.25
50550;BME280;36505;52.512;13.460;2023-03-12T09:39:08;100733.44;;;17.26;28.27
50550;BME280;36505;52.512;13.460;2023-03-12T09:41:36;100726.16;;;15.78;29.97
50550;BME280;36505;52.512;13.460;2023-03-12T09:47:13;100724.50;;;13.66;34.07
50550;BME280;36505;52.512;13.460;2023-03-12T09:49:44;100724.00;;;13.69;34.19
50550;BME280;36505;52.512;13.460;2023-03-12T09:52:31;100724.44;;;13.98;33.96
50550;BME280;36505;52.512;13.460;2023-03-12T09:55:11;100728.00;;;14.46;33.95
50550;BME280;36505;52.512;13.460;2023-03-12T09:57:39;100724.22;;;14.82;32.99
50550;BME280;36505;52.512;13.460;2023-03-12T10:00:10;100708.41;;;14.42;33.40
50550;BME280;36505;52.512;13.460;2023-03-12T10:05:34;100702.44;;;15.16;31.02
50550;BME280;36505;52.512;13.460;2023-03-12T10:14:10;100700.44;;;13.94;33.72
50550;BME280;36505;52.512;13.460;2023-03-12T10:25:18;100688.19;;;13.22;33.56
50550;BME280;36505;52.512;13.460;2023-03-12T10:27:47;100700.28;;;12.68;36.11
50550;BME280;36505;52.512;13.460;2023-03-12T10:30:17;100695.22;;;12.54;36.22
50550;BME280;36505;52.512;13.460;2023-03-12T10:32:49;100692.94;;;12.73;36.42
50550;BME280;36505;52.512;13.460;2023-03-12T10:35:20;100677.34;;;12.84;36.03
50550;BME280;36505;52.512;13.460;2023-03-12T10:40:23;100678.47;;;12.07;37.11
50550;BME280;36505;52.512;13.460;2023-03-12T10:42:48;100677.34;;;12.30;37.12
50550;BME280;36505;52.512;13.460;2023-03-12T10:47:57;100686.25;;;12.15;37.77
50550;BME280;36505;52.512;13.460;2023-03-12T10:50:31;100683.41;;;12.54;37.04
50550;BME280;36505;52.512;13.460;2023-03-12T10:55:41;100663.38;;;12.58;37.10
50550;BME280;36505;52.512;13.460;2023-03-12T10:58:21;100667.94;;;13.06;36.10
50550;BME280;36505;52.512;13.460;2023-03-12T11:00:55;100660.38;;;13.19;36.02
50550;BME280;36505;52.512;13.460;2023-03-12T11:03:21;100653.41;;;12.79;36.33
50550;BME280;36505;52.512;13.460;2023-03-12T11:05:48;100652.94;;;12.55;37.45
50550;BME280;36505;52.512;13.460;2023-03-12T11:08:21;100652.56;;;12.20;36.83
50550;BME280;36505;52.512;13.460;2023-03-12T11:10:48;100646.09;;;12.09;37.28
50550;BME280;36505;52.512;13.460;2023-03-12T11:13:36;100651.19;;;12.22;37.08
50550;BME280;36505;52.512;13.460;2023-03-12T11:16:23;100632.09;;;12.33;36.99
50550;BME280;36505;52.512;13.460;2023-03-12T11:18:54;100636.63;;;12.22;36.41
50550;BME280;36505;52.512;13.460;2023-03-12T11:21:32;100638.25;;;11.96;35.96
50550;BME280;36505;52.512;13.460;2023-03-12T11:24:12;100629.72;;;11.54;36.93
50550;BME280;36505;52.512;13.460;2023-03-12T11:29:11;100635.41;;;11.69;37.23
50550;BME280;36505;52.512;13.460;2023-03-12T11:31:54;100632.47;;;11.54;36.60
50550;BME280;36505;52.512;13.460;2023-03-12T11:34:24;100633.97;;;11.23;38.00
50550;BME280;36505;52.512;13.460;2023-03-12T11:44:37;100620.53;;;11.05;37.69
50550;BME280;36505;52.512;13.460;2023-03-12T11:58:15;100606.38;;;9.89;37.85
50550;BME280;36505;52.512;13.460;2023-03-12T12:06:25;100597.19;;;9.67;38.12
50550;BME280;36505;52.512;13.460;2023-03-12T12:08:55;100595.53;;;9.66;38.89
50550;BME280;36505;52.512;13.460;2023-03-12T12:14:39;100558.69;;;9.57;38.62
50550;BME280;36505;52.512;13.460;2023-03-12T12:20:00;100563.16;;;9.35;38.70
50550;BME280;36505;52.512;13.460;2023-03-12T12:25:24;100561.06;;;9.02;37.71
50550;BME280;36505;52.512;13.460;2023-03-12T12:29:10;100552.41;;;9.05;38.43
50550;BME280;36505;52.512;13.460;2023-03-12T12:31:40;100544.81;;;8.72;39.46
50550;BME280;36505;52.512;13.460;2023-03-12T12:36:56;100510.50;;;8.41;40.86
50550;BME280;36505;52.512;13.460;2023-03-12T12:39:34;100522.25;;;8.42;41.09
50550;BME280;36505;52.512;13.460;2023-03-12T12:42:07;100513.94;;;8.37;41.28
50550;BME280;36505;52.512;13.460;2023-03-12T12:44:42;100496.38;;;8.44;41.09
50550;BME280;36505;52.512;13.460;2023-03-12T12:47:12;100498.75;;;8.41;39.84
50550;BME280;36505;52.512;13.460;2023-03-12T12:49:50;100504.41;;;8.27;39.91
50550;BME280;36505;52.512;13.460;2023-03-12T12:52:19;100504.88;;;8.24;39.32
50550;BME280;36505;52.512;13.460;2023-03-12T12:57:40;100491.78;;;8.03;37.73
50550;BME280;36505;52.512;13.460;2023-03-12T13:02:44;100497.38;;;7.67;37.28
50550;BME280;36505;52.512;13.460;2023-03-12T13:07:49;100506.34;;;7.56;36.95
50550;BME280;36505;52.512;13.460;2023-03-12T13:10:47;100494.22;;;7.51;36.38
50550;BME280;36505;52.512;13.460;2023-03-12T13:13:20;100492.19;;;7.47;37.25
50550;BME280;36505;52.512;13.460;2023-03-12T13:15:47;100490.16;;;7.42;36.51
50550;BME280;36505;52.512;13.460;2023-03-12T13:18:27;100497.38;;;7.37;36.25
50550;BME280;36505;52.512;13.460;2023-03-12T13:33:59;100467.97;;;6.91;38.64
50550;BME280;36505;52.512;13.460;2023-03-12T13:36:36;100471.75;;;6.90;39.33
50550;BME280;36505;52.512;13.460;2023-03-12T13:43:58;100465.56;;;7.01;39.92
50550;BME280;36505;52.512;13.460;2023-03-12T13:46:36;100469.34;;;7.00;39.98
50550;BME280;36505;52.512;13.460;2023-03-12T13:49:08;100462.31;;;6.92;39.38
50550;BME280;36505;52.512;13.460;2023-03-12T13:51:43;100439.38;;;6.63;39.81
50550;BME280;36505;52.512;13.460;2023-03-12T13:54:19;100428.34;;;6.58;40.15
50550;BME280;36505;52.512;13.460;2023-03-12T13:57:03;100445.59;;;6.70;38.97
50550;BME280;36505;52.512;13.460;2023-03-12T13:59:30;100438.94;;;6.48;38.87
50550;BME280;36505;52.512;13.460;2023-03-12T14:02:03;100442.72;;;6.47;39.17
50550;BME280;36505;52.512;13.460;2023-03-12T14:04:34;100432.06;;;6.46;38.73
50550;BME280;36505;52.512;13.460;2023-03-12T14:10:27;100454.56;;;6.34;37.80
50550;BME280;36505;52.512;13.460;2023-03-12T14:15:25;100439.03;;;6.35;37.58
50550;BME280;36505;52.512;13.460;2023-03-12T14:18:08;100441.13;;;6.40;38.12
50550;BME280;36505;52.512;13.460;2023-03-12T14:20:37;100442.38;;;6.37;38.15
50550;BME280;36505;52.512;13.460;2023-03-12T14:23:05;100435.28;;;6.36;38.34
50550;BME280;36505;52.512;13.460;2023-03-12T14:25:35;100422.91;;;6.40;39.04
50550;BME280;36505;52.512;13.460;2023-03-12T14:28:09;100421.09;;;6.34;38.82
50550;BME280;36505;52.512;13.460;2023-03-12T14:33:15;100423.63;;;6.29;39.21
50550;BME280;36505;52.512;13.460;2023-03-12T14:36:06;100431.09;;;6.15;39.19
50550;BME280;36505;52.512;13.460;2023-03-12T14:38:38;100438.47;;;6.08;39.69
50550;BME280;36505;52.512;13.460;2023-03-12T14:41:28;100438.47;;;6.08;40.92